Time;durP1;ratioP1;P1;durP2;ratioP2;P2;SDS_P1;SDS_P2;PMS_P1;PMS_P2;Temp;Humidity;BMP_temperature;BMP_pressure;BME280_temperature;BME280_humidity;BME280_pressure;Samples;Min_cycle;Max_cycle;Signal;HPM_P1;HPM_P2
2021/03/26 00:02:01;;;;;;;13.88;7.35;;;8.20;83.40;;;;;;5091495;28;20149;-67
2021/03/26 00:04:26;;;;;;;11.35;7.40;;;8.20;83.20;;;;;;5092049;28;20036;-59
2021/03/26 00:06:53;;;;;;;11.25;7.32;;;8.20;83.20;;;;;;5091942;28;20377;-57
2021/03/26 00:09:22;;;;;;;12.07;7.50;;;8.20;83.20;;;;;;5091291;28;20040;-58
2021/03/26 00:11:50;;;;;;;13.43;7.00;;;8.30;83.50;;;;;;5092095;28;20019;-63
2021/03/26 00:14:18;;;;;;;13.18;7.25;;;8.30;83.50;;;;;;5091118;28;20147;-62
2021/03/26 00:16:44;;;;;;;12.45;7.53;;;8.30;83.70;;;;;;5091546;28;20069;-60
2021/03/26 00:19:10;;;;;;;10.50;7.28;;;8.30;83.90;;;;;;5091113;28;20419;-62
2021/03/26 00:21:35;;;;;;;12.18;7.45;;;8.30;84.10;;;;;;5091740;28;20035;-62
2021/03/26 00:24:02;;;;;;;12.63;7.40;;;8.30;84.30;;;;;;5091186;28;20028;-64
2021/03/26 00:26:28;;;;;;;15.75;7.55;;;8.30;84.00;;;;;;5091721;28;20479;-62
2021/03/26 00:28:53;;;;;;;11.63;7.47;;;8.40;83.90;;;;;;5092005;28;20028;-63
2021/03/26 00:31:19;;;;;;;10.80;7.35;;;8.40;84.20;;;;;;5091167;28;20600;-60
2021/03/26 00:33:45;;;;;;;13.10;7.70;;;8.40;84.50;;;;;;5092118;28;20043;-60
2021/03/26 00:36:12;;;;;;;11.05;7.10;;;8.30;84.70;;;;;;5090928;28;20024;-63
2021/03/26 00:38:38;;;;;;;12.70;7.35;;;8.30;84.90;;;;;;5091868;28;20027;-61
2021/03/26 00:41:04;;;;;;;13.30;7.65;;;8.30;85.20;;;;;;5090824;28;20021;-60
2021/03/26 00:43:30;;;;;;;9.38;6.97;;;8.30;85.60;;;;;;5091706;28;20353;-61
2021/03/26 00:45:57;;;;;;;11.38;7.28;;;8.20;85.50;;;;;;5091146;28;20034;-62
2021/03/26 00:48:24;;;;;;;10.65;7.07;;;8.10;85.20;;;;;;5091099;28;20453;-58
2021/03/26 00:50:59;;;;;;;12.05;7.97;;;8.00;85.30;;;;;;5091605;28;20372;-64
2021/03/26 00:53:26;;;;;;;11.23;6.97;;;8.00;85.80;;;;;;5091240;28;20031;-64
2021/03/26 00:55:52;;;;;;;10.13;6.80;;;7.80;86.90;;;;;;5091489;28;20036;-60
2021/03/26 00:58:19;;;;;;;9.65;7.25;;;7.70;87.80;;;;;;5090973;28;20036;-62
2021/03/26 01:00:45;;;;;;;12.25;7.25;;;7.60;88.70;;;;;;5091650;28;20055;-65
2021/03/26 01:03:12;;;;;;;12.05;7.10;;;7.50;89.70;;;;;;5090569;28;20464;-64
2021/03/26 01:05:41;;;;;;;9.55;6.80;;;7.30;90.10;;;;;;5091185;28;20063;-63
2021/03/26 01:08:08;;;;;;;10.32;6.88;;;7.20;90.80;;;;;;5090769;28;20020;-63
2021/03/26 01:10:38;;;;;;;12.63;7.15;;;7.10;91.70;;;;;;5092545;28;20357;-65
2021/03/26 01:13:07;;;;;;;10.43;7.25;;;7.00;92.40;;;;;;5094814;28;20534;-65
2021/03/26 01:15:33;;;;;;;11.57;7.03;;;7.00;94.80;;;;;;5095812;28;20047;-62
2021/03/26 01:18:01;;;;;;;9.35;7.25;;;6.80;94.10;;;;;;5095021;28;20024;-64
2021/03/26 01:20:30;;;;;;;10.48;7.20;;;6.70;94.70;;;;;;5094885;28;20028;-62
2021/03/26 01:22:56;;;;;;;11.03;7.37;;;6.60;95.60;;;;;;5095112;28;20284;-62
2021/03/26 01:25:31;;;;;;;9.70;7.20;;;6.70;98.90;;;;;;5094467;28;20127;-60
2021/03/26 01:27:56;;;;;;;11.75;7.60;;;6.50;99.90;;;;;;5077148;28;20032;-62
2021/03/26 01:30:24;;;;;;;11.65;7.88;;;6.30;97.00;;;;;;5094253;28;20433;-58
2021/03/26 01:32:52;;;;;;;12.43;7.45;;;6.30;97.70;;;;;;5095043;28;20048;-64
2021/03/26 01:35:18;;;;;;;12.15;7.82;;;6.20;98.10;;;;;;5094195;28;20524;-59
2021/03/26 01:37:45;;;;;;;13.50;8.68;;;6.20;98.40;;;;;;5095149;28;20024;-61
2021/03/26 01:40:14;;;;;;;10.80;7.20;;;6.20;98.30;;;;;;5093951;28;20030;-60
2021/03/26 01:42:41;;;;;;;13.93;8.30;;;6.20;98.40;;;;;;5094935;28;20028;-60
2021/03/26 01:45:15;;;;;;;13.70;8.32;;;6.20;98.50;;;;;;5093991;28;20392;-58
2021/03/26 01:47:41;;;;;;;12.13;8.00;;;6.20;98.70;;;;;;5094449;28;20035;-62
2021/03/26 01:50:10;;;;;;;15.52;8.25;;;6.20;98.60;;;;;;5094164;28;20028;-64
2021/03/26 01:52:36;;;;;;;15.43;8.27;;;6.30;98.40;;;;;;5076438;28;20024;-64
2021/03/26 01:55:04;;;;;;;14.90;7.95;;;6.20;98.50;;;;;;5094194;28;20091;-63
2021/03/26 01:57:29;;;;;;;13.80;7.95;;;6.20;98.70;;;;;;5094613;28;20023;-61
2021/03/26 01:59:55;;;;;;;13.27;8.40;;;6.30;98.70;;;;;;5094461;28;20093;-63
2021/03/26 02:02:23;;;;;;;12.85;8.25;;;6.20;98.70;;;;;;5093896;28;20024;-61
2021/03/26 02:04:49;;;;;;;11.65;8.27;;;6.20;99.10;;;;;;5094572;28;20032;-61
2021/03/26 02:07:17;;;;;;;15.57;8.82;;;6.10;99.30;;;;;;5074910;28;20115;-63
2021/03/26 02:09:43;;;;;;;15.55;8.93;;;6.10;99.40;;;;;;5094523;28;20020;-61
2021/03/26 02:12:36;;;;;;;15.50;9.13;;;6.00;99.80;;;;;;5075394;28;20099;-63
2021/03/26 02:15:17;;;;;;;12.75;8.63;;;6.00;99.90;;;;;;5075976;28;20074;-66
2021/03/26 02:17:43;;;;;;;15.57;8.02;;;5.90;99.90;;;;;;5094138;28;20031;-61
2021/03/26 02:20:33;;;;;;;14.18;9.23;;;5.90;99.90;;;;;;5093462;28;20039;-64
2021/03/26 02:23:12;;;;;;;15.32;8.82;;;5.90;99.90;;;;;;5074309;28;20373;-61
2021/03/26 02:25:39;;;;;;;16.55;9.48;;;6.00;99.90;;;;;;5094305;28;20115;-63
2021/03/26 02:28:05;;;;;;;16.67;9.25;;;6.10;99.90;;;;;;5093286;28;20035;-66
2021/03/26 02:30:34;;;;;;;13.25;8.27;;;6.20;99.90;;;;;;5094101;28;20423;-61
2021/03/26 02:33:00;;;;;;;17.10;9.20;;;6.20;99.10;;;;;;5075955;28;20016;-60
2021/03/26 02:35:42;;;;;;;10.95;6.78;;;6.30;98.40;;;;;;5093134;28;20325;-60
2021/03/26 02:38:26;;;;;;;14.25;8.25;;;6.30;98.20;;;;;;5092817;28;20020;-65
2021/03/26 02:41:17;;;;;;;15.50;7.97;;;6.30;98.10;;;;;;5094051;28;20036;-65
2021/03/26 02:44:01;;;;;;;14.63;8.60;;;6.30;98.30;;;;;;5093748;28;20035;-60
2021/03/26 02:46:50;;;;;;;13.27;7.85;;;6.30;98.20;;;;;;5092449;28;20024;-63
2021/03/26 02:49:27;;;;;;;12.65;8.70;;;6.30;98.30;;;;;;5093047;28;20057;-61
2021/03/26 02:52:05;;;;;;;13.70;8.40;;;6.20;98.90;;;;;;5093748;28;20085;-62
2021/03/26 02:54:37;;;;;;;16.10;8.75;;;6.10;99.40;;;;;;5093048;28;20044;-65
2021/03/26 02:57:18;;;;;;;15.77;9.27;;;6.00;99.90;;;;;;5093097;28;20461;-65
2021/03/26 02:59:56;;;;;;;14.95;10.07;;;5.90;99.90;;;;;;5075007;28;20081;-60
2021/03/26 03:02:24;;;;;;;13.45;9.43;;;5.90;99.90;;;;;;5092576;28;20032;-63
2021/03/26 03:05:02;;;;;;;16.83;9.85;;;5.80;99.90;;;;;;5093373;28;20157;-64
2021/03/26 03:07:32;;;;;;;14.27;9.88;;;5.70;99.90;;;;;;5092654;28;20032;-61
2021/03/26 03:10:24;;;;;;;16.33;9.15;;;5.70;99.90;;;;;;5092625;28;20024;-59
2021/03/26 03:12:56;;;;;;;13.63;8.55;;;5.70;99.90;;;;;;5092847;28;20027;-61
2021/03/26 03:15:27;;;;;;;13.45;8.77;;;5.60;99.90;;;;;;5092191;28;20032;-64
2021/03/26 03:18:12;;;;;;;14.35;8.95;;;5.50;99.90;;;;;;5092881;28;20024;-64
2021/03/26 03:21:00;;;;;;;12.95;8.93;;;5.50;99.90;;;;;;5092791;28;20103;-60
2021/03/26 03:23:35;;;;;;;15.82;8.98;;;5.40;99.90;;;;;;5092146;28;20579;-61
2021/03/26 03:26:08;;;;;;;14.60;8.98;;;5.40;99.90;;;;;;5093210;28;20036;-62
2021/03/26 03:28:37;;;;;;;13.15;9.43;;;5.30;99.90;;;;;;5092953;28;20024;-63
2021/03/26 03:31:33;;;;;;;16.38;8.95;;;5.20;99.90;;;;;;5074675;28;20024;-63
2021/03/26 03:34:15;;;;;;;18.17;9.23;;;5.10;99.90;;;;;;5092245;28;20028;-60
2021/03/26 03:37:20;;;;;;;17.35;8.75;;;5.00;99.90;;;;;;5092720;28;20378;-59
2021/03/26 03:40:16;;;;;;;11.45;8.10;;;5.00;99.90;;;;;;5092536;28;20024;-62
2021/03/26 03:42:56;;;;;;;12.35;7.93;;;4.90;99.90;;;;;;5090367;28;20482;-62
2021/03/26 03:45:44;;;;;;;13.02;8.18;;;4.90;99.90;;;;;;5091840;28;20148;-59
2021/03/26 03:48:33;;;;;;;16.95;8.98;;;4.90;99.90;;;;;;5091706;28;20110;-61
2021/03/26 03:51:12;;;;;;;15.80;8.48;;;4.80;99.90;;;;;;5092110;28;20051;-59
2021/03/26 03:53:47;;;;;;;15.18;8.90;;;4.80;99.90;;;;;;5092573;28;20043;-62
2021/03/26 03:56:17;;;;;;;13.23;8.90;;;4.70;99.90;;;;;;5091161;28;20035;-62
2021/03/26 03:58:49;;;;;;;18.83;10.23;;;4.70;99.90;;;;;;5092456;28;20028;-63
2021/03/26 04:01:21;;;;;;;13.90;8.93;;;4.70;99.90;;;;;;5091775;28;20109;-61
2021/03/26 04:03:51;;;;;;;15.35;9.25;;;4.70;99.90;;;;;;5092622;28;20040;-61
2021/03/26 04:06:41;;;;;;;14.55;8.82;;;4.80;99.90;;;;;;5091863;28;20481;-63
2021/03/26 04:09:11;;;;;;;13.68;8.70;;;4.80;99.90;;;;;;5091932;28;20064;-64
2021/03/26 04:11:56;;;;;;;15.82;9.07;;;4.80;99.90;;;;;;5092014;28;20411;-58
2021/03/26 04:14:48;;;;;;;14.50;9.20;;;4.80;99.90;;;;;;5090050;28;20048;-60
2021/03/26 04:17:18;;;;;;;18.98;9.20;;;4.80;99.90;;;;;;5091352;28;20032;-65
2021/03/26 04:19:53;;;;;;;13.35;9.43;;;4.90;99.90;;;;;;5074202;28;20077;-60
2021/03/26 04:22:24;;;;;;;17.40;9.05;;;4.90;99.90;;;;;;5073244;28;20111;-60
2021/03/26 04:25:08;;;;;;;12.85;9.25;;;5.00;99.90;;;;;;5091558;28;20034;-62
2021/03/26 04:27:43;;;;;;;16.00;9.05;;;5.00;99.90;;;;;;5091831;28;20024;-62
2021/03/26 04:30:14;;;;;;;17.42;9.85;;;5.00;99.90;;;;;;5091252;28;20111;-66
2021/03/26 04:32:41;;;;;;;14.43;9.55;;;5.00;99.90;;;;;;5073828;28;20508;-64
2021/03/26 04:35:10;;;;;;;18.17;10.23;;;5.00;99.90;;;;;;5073476;28;20035;-66
2021/03/26 04:38:04;;;;;;;15.07;9.43;;;5.00;99.90;;;;;;5091646;28;20051;-62
2021/03/26 04:40:41;;;;;;;17.08;9.57;;;5.10;99.90;;;;;;5090768;28;20039;-62
2021/03/26 04:43:07;;;;;;;13.40;8.65;;;5.10;99.90;;;;;;5091149;28;20099;-67
2021/03/26 04:45:59;;;;;;;15.75;9.05;;;5.00;99.90;;;;;;5092044;28;20528;-64
2021/03/26 04:48:37;;;;;;;15.95;9.77;;;5.00;99.90;;;;;;5095467;28;20192;-62
2021/03/26 04:51:15;;;;;;;13.73;9.38;;;5.00;99.90;;;;;;5076127;28;20029;-62
2021/03/26 04:54:03;;;;;;;17.67;9.32;;;5.00;99.90;;;;;;5075643;28;20036;-64
2021/03/26 04:56:35;;;;;;;14.00;9.50;;;5.00;99.90;;;;;;5074426;28;20115;-65
2021/03/26 04:59:04;;;;;;;19.25;11.48;;;5.00;99.90;;;;;;5092722;28;20021;-64
2021/03/26 05:01:31;;;;;;;22.83;11.82;;;5.10;99.90;;;;;;5094585;28;20040;-64
2021/03/26 05:04:06;;;;;;;21.55;11.13;;;5.10;99.90;;;;;;5095705;28;20036;-64
2021/03/26 05:06:39;;;;;;;20.25;11.77;;;5.20;99.90;;;;;;5095062;28;20024;-59
2021/03/26 05:09:16;;;;;;;17.98;10.68;;;5.20;99.90;;;;;;5095903;28;20020;-61
2021/03/26 05:11:49;;;;;;;16.88;10.68;;;5.20;99.90;;;;;;5095574;28;20046;-61
2021/03/26 05:14:23;;;;;;;22.85;12.55;;;5.20;99.90;;;;;;5094352;28;20053;-62
2021/03/26 05:16:57;;;;;;;19.58;11.45;;;5.20;99.90;;;;;;5095530;28;20024;-63
2021/03/26 05:19:43;;;;;;;18.92;11.80;;;5.10;99.90;;;;;;5094680;28;20025;-64
2021/03/26 05:22:45;;;;;;;20.50;12.68;;;5.10;99.90;;;;;;5094989;28;20043;-67
2021/03/26 05:25:40;;;;;;;22.98;12.45;;;5.00;99.90;;;;;;5094208;28;20050;-66
2021/03/26 05:28:15;;;;;;;16.75;11.13;;;4.90;99.90;;;;;;5095029;28;20035;-65
2021/03/26 05:30:43;;;;;;;19.35;11.70;;;4.80;99.90;;;;;;5095307;28;20059;-61
2021/03/26 05:33:36;;;;;;;18.77;11.25;;;4.80;99.90;;;;;;5094662;28;20465;-66
2021/03/26 05:36:10;;;;;;;19.20;11.18;;;4.80;99.90;;;;;;5094766;28;20032;-62
2021/03/26 05:38:46;;;;;;;18.23;10.82;;;4.80;99.90;;;;;;5095024;28;20039;-62
2021/03/26 05:41:42;;;;;;;23.15;12.77;;;4.80;99.90;;;;;;5094426;28;20492;-63
2021/03/26 05:44:35;;;;;;;21.45;12.32;;;4.80;99.90;;;;;;5093331;28;20071;-72
2021/03/26 05:47:23;;;;;;;18.25;11.20;;;4.80;99.90;;;;;;5094833;28;20062;-62
2021/03/26 05:49:54;;;;;;;26.98;13.70;;;4.80;99.90;;;;;;5095084;28;20028;-61
2021/03/26 05:52:43;;;;;;;24.52;13.43;;;4.90;99.90;;;;;;5093645;28;20032;-65
2021/03/26 05:55:39;;;;;;;26.13;13.25;;;4.90;99.90;;;;;;5065246;28;20036;-66
2021/03/26 05:58:21;;;;;;;20.20;12.52;;;5.00;99.90;;;;;;5094210;28;20381;-63
2021/03/26 06:01:17;;;;;;;21.23;12.07;;;5.10;99.90;;;;;;5094761;28;20051;-63
2021/03/26 06:04:20;;;;;;;21.42;12.98;;;5.20;99.90;;;;;;5094736;28;20036;-60
2021/03/26 06:07:15;;;;;;;27.65;13.88;;;5.30;99.90;;;;;;5094869;28;20028;-61
2021/03/26 06:10:02;;;;;;;22.30;13.70;;;5.50;99.90;;;;;;5076430;28;20047;-61
2021/03/26 06:12:52;;;;;;;20.77;13.02;;;5.60;99.90;;;;;;5093298;28;20028;-60
2021/03/26 06:15:26;;;;;;;22.05;13.02;;;5.80;99.90;;;;;;5075463;28;20463;-62
2021/03/26 06:18:11;;;;;;;21.88;13.80;;;5.90;99.90;;;;;;5091009;28;20024;-62
2021/03/26 06:20:51;;;;;;;19.58;12.75;;;6.10;99.90;;;;;;5093921;28;20088;-63
2021/03/26 06:23:45;;;;;;;20.40;12.90;;;6.30;99.90;;;;;;5093226;28;20354;-63
2021/03/26 06:26:13;;;;;;;19.98;13.50;;;6.50;99.90;;;;;;5093539;28;20036;-66
2021/03/26 06:29:08;;;;;;;21.55;12.90;;;6.70;99.90;;;;;;5093827;28;20045;-63
2021/03/26 06:31:52;;;;;;;20.35;12.95;;;6.90;99.00;;;;;;5092522;28;20023;-66
2021/03/26 06:34:49;;;;;;;23.92;14.43;;;7.10;97.60;;;;;;5093106;28;20024;-64
2021/03/26 06:37:27;;;;;;;22.73;14.02;;;7.30;95.70;;;;;;5092915;28;20472;-65
2021/03/26 06:40:19;;;;;;;28.40;13.88;;;7.60;94.70;;;;;;5093842;28;20031;-65
2021/03/26 06:43:03;;;;;;;23.38;13.73;;;7.70;93.10;;;;;;5093470;28;20031;-63
2021/03/26 06:45:51;;;;;;;19.52;14.00;;;7.80;92.40;;;;;;5092380;28;20132;-64
2021/03/26 06:48:35;;;;;;;25.13;14.82;;;7.80;92.10;;;;;;5074728;28;20028;-61
2021/03/26 06:51:18;;;;;;;23.33;13.18;;;7.90;91.60;;;;;;5075574;28;20024;-61
2021/03/26 06:54:16;;;;;;;18.95;13.13;;;8.00;91.70;;;;;;5093433;28;20032;-63
2021/03/26 06:57:08;;;;;;;22.55;13.23;;;8.00;91.70;;;;;;5038217;28;20157;-61
2021/03/26 06:59:53;;;;;;;20.58;13.55;;;8.10;90.70;;;;;;5088924;28;20048;-64
2021/03/26 07:02:18;;;;;;;30.15;13.57;;;8.20;90.40;;;;;;5092353;28;20020;-64
2021/03/26 07:05:08;;;;;;;22.77;13.68;;;8.30;90.00;;;;;;5092787;28;20031;-63
2021/03/26 07:07:49;;;;;;;20.63;13.75;;;8.30;89.50;;;;;;5092331;28;20025;-60
2021/03/26 07:10:23;;;;;;;;;;;8.30;89.10;;;;;;5092748;28;20056;-66
2021/03/26 07:13:13;;;;;;;19.27;13.60;;;8.40;88.10;;;;;;5092442;28;19911;-64
2021/03/26 07:15:51;;;;;;;21.45;14.20;;;8.50;88.50;;;;;;5085253;28;20392;-63
2021/03/26 07:18:17;;;;;;;22.80;14.68;;;8.50;87.70;;;;;;5091644;28;20046;-65
2021/03/26 07:21:10;;;;;;;25.30;14.73;;;8.60;86.90;;;;;;5088879;28;20477;-64
2021/03/26 07:24:09;;;;;;;24.52;15.05;;;8.50;86.80;;;;;;5072696;28;20103;-61
2021/03/26 07:26:54;;;;;;;23.45;15.02;;;8.60;86.30;;;;;;5091720;28;20039;-59
2021/03/26 07:29:47;;;;;;;23.20;14.85;;;8.70;86.30;;;;;;5096573;28;20518;-61
2021/03/26 07:32:31;;;;;;;23.65;16.10;;;8.80;86.20;;;;;;5084494;28;20038;-67
2021/03/26 07:35:15;;;;;;;23.42;13.88;;;9.00;85.20;;;;;;5054423;28;20426;-64
2021/03/26 07:38:03;;;;;;;31.13;15.50;;;9.20;86.20;;;;;;5087821;28;20043;-62
2021/03/26 07:40:44;;;;;;;26.00;14.48;;;9.50;82.60;;;;;;5089296;28;20468;-60
2021/03/26 07:43:55;;;;;;;23.20;14.60;;;9.60;82.70;;;;;;5091596;28;20373;-61
2021/03/26 07:46:39;;;;;;;23.20;14.13;;;10.00;80.00;;;;;;5047617;28;20047;-63
2021/03/26 07:49:31;;;;;;;28.58;14.70;;;10.30;78.80;;;;;;5097067;28;20019;-62
2021/03/26 07:52:14;;;;;;;22.35;14.65;;;10.50;77.00;;;;;;5090452;28;20507;-63
2021/03/26 07:55:21;;;;;;;21.85;13.65;;;10.60;76.20;;;;;;5090755;28;20047;-64
2021/03/26 07:58:24;;;;;;;23.23;14.15;;;10.80;75.20;;;;;;5091296;28;20528;-65
2021/03/26 08:00:52;;;;;;;25.95;14.23;;;10.80;75.10;;;;;;5083554;28;20397;-65
2021/03/26 08:03:44;;;;;;;21.52;15.07;;;10.70;75.50;;;;;;5088761;28;20099;-64
2021/03/26 08:06:47;;;;;;;25.40;13.32;;;10.60;75.70;;;;;;5086373;28;20461;-65
2021/03/26 08:09:18;;;;;;;25.05;13.70;;;10.50;76.40;;;;;;5090450;28;20095;-68
2021/03/26 08:12:28;;;;;;;31.13;16.35;;;10.50;75.80;;;;;;5082538;28;20051;-63
2021/03/26 08:15:06;;;;;;;30.20;16.23;;;10.40;75.90;;;;;;5088373;28;20032;-63
2021/03/26 08:17:56;;;;;;;24.33;15.60;;;10.50;75.80;;;;;;5087176;28;20141;-64
2021/03/26 08:20:27;;;;;;;;;;;10.50;75.60;;;;;;5084911;28;20389;-65
2021/03/26 08:23:05;;;;;;;27.65;15.88;;;10.50;75.30;;;;;;5083316;28;19908;-63
2021/03/26 08:26:06;;;;;;;31.90;17.38;;;10.50;75.40;;;;;;5069131;28;20715;-65
2021/03/26 08:28:47;;;;;;;28.23;16.15;;;10.50;75.20;;;;;;5046329;28;20053;-66
2021/03/26 08:31:40;;;;;;;29.45;15.48;;;10.60;75.40;;;;;;5083908;28;20078;-68
2021/03/26 08:34:12;;;;;;;29.05;15.90;;;10.70;75.20;;;;;;5090524;28;20507;-65
2021/03/26 08:36:56;;;;;;;26.13;16.25;;;10.80;75.20;;;;;;5090670;28;20024;-64
2021/03/26 08:39:40;;;;;;;27.88;15.45;;;10.90;74.30;;;;;;5089734;28;20028;-67
2021/03/26 08:42:26;;;;;;;26.75;15.90;;;11.00;74.10;;;;;;5087970;28;20032;-66
2021/03/26 08:45:09;;;;;;;25.95;14.50;;;11.10;73.30;;;;;;5086370;28;20031;-66
2021/03/26 08:47:48;;;;;;;22.23;14.50;;;11.20;72.60;;;;;;5085856;28;20032;-64
2021/03/26 08:50:16;;;;;;;26.88;16.08;;;11.40;72.00;;;;;;5095031;28;20031;-68
2021/03/26 08:52:51;;;;;;;25.42;15.30;;;11.50;71.70;;;;;;5097595;28;20040;-62
2021/03/26 08:55:35;;;;;;;33.50;15.63;;;11.60;71.50;;;;;;5083290;28;20040;-68
2021/03/26 08:58:26;;;;;;;24.05;15.63;;;11.70;71.70;;;;;;5090459;28;20209;-67
2021/03/26 09:01:09;;;;;;;22.92;13.43;;;11.80;71.60;;;;;;5090061;28;20050;-64
2021/03/26 09:04:00;;;;;;;22.77;14.07;;;12.00;71.40;;;;;;5089908;28;20581;-64
2021/03/26 09:06:44;;;;;;;28.23;14.27;;;12.10;70.30;;;;;;5088383;28;20084;-64
2021/03/26 09:09:23;;;;;;;22.52;14.15;;;12.30;70.00;;;;;;5072483;28;20029;-63
2021/03/26 09:12:10;;;;;;;20.47;13.13;;;12.50;69.50;;;;;;5089867;28;20035;-64
2021/03/26 09:15:00;;;;;;;21.58;13.73;;;12.60;67.90;;;;;;5088595;28;20286;-64
2021/03/26 09:17:51;;;;;;;23.30;12.68;;;12.80;67.20;;;;;;5082900;28;20024;-65
2021/03/26 09:20:22;;;;;;;20.52;12.20;;;12.90;66.50;;;;;;5070278;28;20032;-68
2021/03/26 09:23:16;;;;;;;27.08;12.25;;;13.00;66.20;;;;;;5088122;28;20473;-63
2021/03/26 09:25:49;;;;;;;27.20;15.60;;;13.10;66.00;;;;;;5090447;28;20103;-65
2021/03/26 09:28:53;;;;;;;23.02;13.13;;;13.30;65.70;;;;;;5089945;28;20024;-68
2021/03/26 09:31:36;;;;;;;22.38;12.80;;;13.40;64.50;;;;;;5007265;28;20160;-67
2021/03/26 09:34:06;;;;;;;25.60;12.65;;;13.50;65.10;;;;;;5062419;28;20511;-64
2021/03/26 09:36:35;;;;;;;19.50;12.45;;;13.70;65.00;;;;;;5093227;28;20514;-64
2021/03/26 09:39:12;;;;;;;20.50;11.95;;;13.70;63.30;;;;;;5092727;28;20043;-64
2021/03/26 09:41:51;;;;;;;17.08;11.32;;;13.80;63.40;;;;;;5093033;28;20039;-64
2021/03/26 09:44:38;;;;;;;22.17;11.65;;;13.90;62.40;;;;;;5093614;28;20040;-68
2021/03/26 09:47:12;;;;;;;27.13;13.63;;;14.00;61.90;;;;;;5092351;28;20060;-65
2021/03/26 09:49:52;;;;;;;19.98;12.20;;;14.20;60.40;;;;;;5093210;28;20016;-64
2021/03/26 09:52:23;;;;;;;20.25;12.00;;;14.30;60.40;;;;;;5092132;28;20111;-67
2021/03/26 09:54:54;;;;;;;19.95;12.32;;;14.40;60.60;;;;;;5086498;28;20089;-65
2021/03/26 09:57:46;;;;;;;22.75;11.90;;;14.50;60.10;;;;;;5092203;28;20484;-67
2021/03/26 10:00:35;;;;;;;23.77;12.85;;;14.50;59.30;;;;;;5091691;28;20062;-64
2021/03/26 10:03:31;;;;;;;20.52;12.05;;;14.70;59.60;;;;;;5093207;28;20039;-65
2021/03/26 10:06:04;;;;;;;17.77;10.48;;;14.80;60.00;;;;;;5093486;28;20043;-64
2021/03/26 10:11:59;;;;;;;22.90;10.15;;;14.80;57.30;;;;;;5092782;28;20526;-64
2021/03/26 10:14:29;;;;;;;17.00;10.25;;;15.00;56.80;;;;;;5092160;28;20481;-64
2021/03/26 10:16:57;;;;;;;20.00;10.80;;;15.10;57.50;;;;;;5092939;28;20073;-63
2021/03/26 10:19:32;;;;;;;14.88;9.75;;;15.30;56.60;;;;;;5091336;28;21643;-64
2021/03/26 10:21:59;;;;;;;20.90;10.52;;;15.30;57.10;;;;;;5093260;28;20074;-66
2021/03/26 10:24:33;;;;;;;21.45;10.20;;;15.40;56.00;;;;;;5091559;28;20040;-64
2021/03/26 10:27:10;;;;;;;13.52;8.60;;;15.60;55.70;;;;;;5093217;28;20073;-64
2021/03/26 10:29:48;;;;;;;15.90;9.60;;;15.80;55.40;;;;;;5091587;28;20035;-61
2021/03/26 10:32:21;;;;;;;13.43;9.10;;;16.10;54.20;;;;;;5089435;28;20017;-64
2021/03/26 10:34:48;;;;;;;11.75;8.38;;;16.30;53.10;;;;;;5092344;28;20076;-63
2021/03/26 10:37:38;;;;;;;15.40;8.52;;;16.40;52.80;;;;;;5070980;28;20106;-61
2021/03/26 10:40:28;;;;;;;16.23;9.00;;;16.50;52.80;;;;;;5074738;28;20126;-66
2021/03/26 10:43:25;;;;;;;20.50;8.15;;;16.80;51.80;;;;;;5091683;28;20111;-63
2021/03/26 10:46:14;;;;;;;17.17;9.50;;;16.90;51.60;;;;;;5092654;28;20031;-65
2021/03/26 10:48:54;;;;;;;20.88;8.85;;;17.00;51.70;;;;;;5091178;28;20028;-64
2021/03/26 10:52:15;;;;;;;12.77;7.53;;;17.00;51.30;;;;;;5091939;28;20050;-70
2021/03/26 10:55:03;;;;;;;14.35;8.25;;;17.20;50.40;;;;;;5068092;28;20837;-66
2021/03/26 10:57:43;;;;;;;11.23;7.20;;;17.30;49.60;;;;;;5089496;28;20055;-65
2021/03/26 11:00:18;;;;;;;12.48;6.80;;;17.50;49.50;;;;;;5091898;28;20048;-65
2021/03/26 11:03:13;;;;;;;12.73;6.47;;;17.60;47.60;;;;;;5091457;28;20484;-64
2021/03/26 11:05:54;;;;;;;10.73;6.25;;;17.70;47.00;;;;;;5053809;28;20505;-68
2021/03/26 11:08:49;;;;;;;17.50;6.97;;;17.70;45.30;;;;;;5089226;28;20051;-69
2021/03/26 11:11:31;;;;;;;11.68;6.43;;;17.60;46.30;;;;;;5091816;28;20115;-64
2021/03/26 11:14:31;;;;;;;14.45;7.50;;;17.50;46.80;;;;;;5091991;28;20117;-64
2021/03/26 11:16:56;;;;;;;13.48;6.75;;;17.50;46.70;;;;;;5013044;28;20048;-64
2021/03/26 11:19:46;;;;;;;9.35;6.25;;;17.40;46.70;;;;;;5091790;28;20486;-69
2021/03/26 11:22:26;;;;;;;11.13;5.68;;;17.60;45.40;;;;;;5092026;28;20031;-65
2021/03/26 11:25:05;;;;;;;8.93;4.15;;;17.90;43.90;;;;;;5091933;28;20419;-63
2021/03/26 11:27:50;;;;;;;9.25;4.60;;;18.00;43.60;;;;;;5090859;28;20024;-64
2021/03/26 11:30:24;;;;;;;10.25;4.97;;;18.20;43.30;;;;;;5091986;28;20028;-66
2021/03/26 11:32:59;;;;;;;7.10;4.55;;;18.30;42.80;;;;;;5091595;28;20033;-64
2021/03/26 11:35:33;;;;;;;7.00;4.47;;;18.20;42.40;;;;;;5072647;28;20385;-67
2021/03/26 11:38:01;;;;;;;7.07;4.93;;;18.30;42.90;;;;;;5090434;28;20119;-64
2021/03/26 11:40:44;;;;;;;8.38;4.00;;;18.60;42.20;;;;;;5090484;28;20508;-67
2021/03/26 11:43:19;;;;;;;10.10;5.45;;;19.00;41.90;;;;;;5091649;28;20050;-67
2021/03/26 11:46:02;;;;;;;7.70;4.50;;;19.30;40.50;;;;;;5072796;28;20032;-68
2021/03/26 11:48:52;;;;;;;7.25;5.00;;;19.50;40.10;;;;;;5090809;28;20039;-67
2021/03/26 11:51:20;;;;;;;;;;;19.70;39.30;;;;;;5092028;28;20035;-67
2021/03/26 11:53:47;;;;;;;9.50;4.97;;;19.70;38.20;;;;;;5090979;28;19993;-66
2021/03/26 11:56:51;;;;;;;8.48;4.78;;;19.70;38.60;;;;;;5091440;28;20372;-66
2021/03/26 11:59:54;;;;;;;6.25;4.40;;;19.80;38.70;;;;;;5035561;28;20432;-67
2021/03/26 12:02:25;;;;;;;7.88;4.30;;;20.10;38.40;;;;;;5089853;28;20034;-66
2021/03/26 12:05:07;;;;;;;6.03;4.00;;;20.20;38.60;;;;;;5090818;28;20063;-67
2021/03/26 12:07:45;;;;;;;6.95;4.50;;;20.50;38.40;;;;;;5089997;28;20381;-65
2021/03/26 12:10:27;;;;;;;10.68;6.80;;;20.90;38.10;;;;;;5106523;28;20027;-67
2021/03/26 12:13:21;;;;;;;14.23;6.13;;;20.80;38.00;;;;;;5108651;28;20109;-67
2021/03/26 12:16:19;;;;;;;7.95;5.55;;;20.80;38.20;;;;;;5080024;28;20083;-67
2021/03/26 12:18:59;;;;;;;9.23;6.30;;;20.70;38.90;;;;;;5090879;28;20086;-66
2021/03/26 12:21:49;;;;;;;8.73;6.03;;;20.70;38.70;;;;;;5089870;28;20031;-70
2021/03/26 12:24:21;;;;;;;7.88;5.50;;;20.90;38.40;;;;;;5090487;28;20370;-67
2021/03/26 12:27:27;;;;;;;9.27;5.97;;;21.00;38.80;;;;;;5090278;28;20121;-66
2021/03/26 12:30:13;;;;;;;9.20;5.95;;;21.40;37.90;;;;;;5091248;28;20241;-65
2021/03/26 12:33:00;;;;;;;10.18;5.53;;;21.50;37.10;;;;;;5089240;28;20142;-66
2021/03/26 12:35:44;;;;;;;12.30;5.97;;;21.50;37.20;;;;;;5090095;28;20059;-70
2021/03/26 12:38:21;;;;;;;11.35;5.35;;;21.50;37.00;;;;;;5090990;28;20087;-65
2021/03/26 12:40:46;;;;;;;10.75;5.28;;;21.90;36.50;;;;;;5091333;28;20024;-65
2021/03/26 12:43:18;;;;;;;11.32;5.75;;;22.20;36.40;;;;;;5111411;28;20031;-65
2021/03/26 12:46:11;;;;;;;9.93;6.15;;;22.70;36.40;;;;;;5102332;28;20461;-65
2021/03/26 12:48:58;;;;;;;14.35;5.40;;;23.10;35.40;;;;;;5054645;28;20054;-65
2021/03/26 12:51:38;;;;;;;11.10;5.53;;;23.20;34.50;;;;;;5090486;28;20028;-70
2021/03/26 12:54:16;;;;;;;7.40;4.82;;;23.10;34.80;;;;;;5083807;28;20384;-66
2021/03/26 12:56:53;;;;;;;7.90;4.90;;;22.90;35.00;;;;;;5085612;28;20044;-66
2021/03/26 12:59:29;;;;;;;5.38;4.05;;;22.80;35.20;;;;;;5090213;28;20469;-65
2021/03/26 13:02:03;;;;;;;7.38;4.50;;;22.80;34.50;;;;;;5104000;28;20107;-66
2021/03/26 13:04:51;;;;;;;8.75;4.60;;;22.90;35.00;;;;;;5090983;28;20039;-66
2021/03/26 13:07:58;;;;;;;9.68;5.03;;;23.10;34.90;;;;;;5083437;28;20031;-66
2021/03/26 13:10:33;;;;;;;5.90;3.63;;;23.20;34.50;;;;;;5093162;28;20116;-70
2021/03/26 13:13:21;;;;;;;7.05;4.05;;;22.90;33.70;;;;;;5094379;28;20031;-66
2021/03/26 13:16:14;;;;;;;10.50;4.28;;;22.80;32.00;;;;;;5092690;28;20052;-64
2021/03/26 13:18:50;;;;;;;5.07;3.63;;;22.70;33.10;;;;;;5076271;28;20028;-65
2021/03/26 13:21:28;;;;;;;5.10;3.67;;;22.80;34.20;;;;;;5094629;28;20453;-64
2021/03/26 13:24:11;;;;;;;8.40;4.22;;;22.60;33.50;;;;;;5094236;28;20032;-64
2021/03/26 13:26:39;;;;;;;9.13;4.15;;;22.30;33.80;;;;;;5093627;28;20116;-60
2021/03/26 13:29:18;;;;;;;12.93;4.70;;;22.20;34.10;;;;;;5093467;28;20484;-63
2021/03/26 13:31:45;;;;;;;5.15;3.53;;;22.00;34.00;;;;;;5093576;28;20032;-64
2021/03/26 13:34:34;;;;;;;8.07;4.40;;;22.00;34.80;;;;;;5076006;28;20077;-62
2021/03/26 13:37:06;;;;;;;5.70;4.05;;;22.30;33.40;;;;;;5085847;28;20052;-64
2021/03/26 13:39:46;;;;;;;9.70;4.60;;;22.40;33.30;;;;;;5089432;28;20036;-65
2021/03/26 13:42:27;;;;;;;6.43;4.53;;;22.30;33.00;;;;;;5086479;28;20035;-63
2021/03/26 13:45:15;;;;;;;8.57;4.60;;;21.90;33.80;;;;;;5092770;28;20044;-63
2021/03/26 13:47:51;;;;;;;8.48;3.90;;;21.20;34.30;;;;;;5089391;28;20056;-63